メインページ
METAR-TAF:

METAR-TAF

空港 :

リマ, ペルー

ホルヘ・チャベス国際空港

緯度: 12-00S, 経度: 077-07W, 海抜: 12m

現時点の気象観測

当レポートは53分前の01:00(UTC)に作成
南/南東の風 9kt
気温 18°C
湿度 83%
気圧 1015 hPa
視程10km以上
1,500メートル以下は雲なし、積乱雲なし

METAR: SPJC 260100Z 16009KT CAVOK 18/15 Q1015 NOSIG RMK PP000

時間: 20:53 (01:53 UTC)

予報

当レポートは2時間53分前の23:00(UTC)に作成
予報は26日の 00時(UTC)から 26日の 24時(UTC)まで有効
の風 10kt
視程10km以上
高度1700ftの千切れ雲あり
26日の 00時(UTC)から 26日の 03時(UTC)まで一時的に
高度2000ftの雲は散在している
26日の 0900時(UTC)から
南/南東の風 5kt
視程: 8000m
高度1500ftの曇り
26日の 1500時(UTC)から
の風 12kt
視程10km以上
高度2200ftの雲は散在している

TAF: SPJC 252300Z 2600/2624 18010KT 9999 BKN017 TX22/2619Z TN17/2611Z TEMPO 2600/2603 SCT020 FM260900 16005KT 8000 OVC015 FM261500 18012KT 9999 SCT022

4,000以上の空港の気象観測と天気予報(METAR報とTAF報)

利用可能な観測所は地図上に黄色い丸と赤い丸で示す。

丸の上にカーソルを重ねると観測所名を参照できる。

次にクリックすると気象観測と天気予報を参照できる。

マップの切り替え:黒色「×」印の緑ボタンをクリックして拡大、「-」印の緑ボタンをクリックして縮小、緑色の三角印をクリックして隣りの地図に切り替え


METAR-TAF: